Time;durP1;ratioP1;P1;durP2;ratioP2;P2;SDS_P1;SDS_P2;PMS_P1;PMS_P2;Temp;Humidity;BMP_temperature;BMP_pressure;BME280_temperature;BME280_humidity;BME280_pressure;Samples;Min_cycle;Max_cycle;Signal;HPM_P1;HPM_P2
2022/01/22 00:01:43;;;;;;;0.32;0.30;;;;;;;23.97;10.68;100275.53;5035755;28;20033;-74
2022/01/22 00:04:08;;;;;;;0.30;0.30;;;;;;;23.99;10.81;100279.63;5035642;28;20033;-77
2022/01/22 00:06:34;;;;;;;0.20;0.20;;;;;;;23.98;10.73;100282.63;5036180;28;20037;-76
2022/01/22 00:08:59;;;;;;;0.40;0.40;;;;;;;23.98;10.85;100288.91;5035529;28;20468;-76
2022/01/22 00:11:29;;;;;;;0.20;0.20;;;;;;;23.98;10.66;100280.72;5035753;28;20037;-76
2022/01/22 00:16:38;;;;;;;0.30;0.30;;;;;;;23.95;10.73;100294.91;5035875;28;20064;-76
2022/01/22 00:19:08;;;;;;;0.45;0.30;;;;;;;23.99;10.81;100297.91;5035435;28;20029;-76
2022/01/22 00:21:33;;;;;;;1.85;0.47;;;;;;;23.97;10.68;100303.66;5035531;28;20025;-76
2022/01/22 00:24:02;;;;;;;0.30;0.30;;;;;;;23.96;10.66;100301.22;5036285;28;20026;-77
2022/01/22 00:26:27;;;;;;;0.30;0.30;;;;;;;23.95;10.68;100318.69;5035481;28;20040;-76
2022/01/22 00:28:52;;;;;;;0.38;0.38;;;;;;;23.95;10.88;100319.47;5036068;28;20021;-76
2022/01/22 00:31:18;;;;;;;0.30;0.30;;;;;;;23.97;10.56;100319.22;5035116;28;20050;-76
2022/01/22 00:33:43;;;;;;;0.63;0.32;;;;;;;23.95;10.78;100319.47;5035218;28;20051;-75
2022/01/22 00:36:09;;;;;;;0.20;0.20;;;;;;;23.95;10.81;100319.47;5035556;28;20083;-76
2022/01/22 00:38:34;;;;;;;0.30;0.30;;;;;;;23.97;10.60;100319.22;5017760;28;20048;-77
2022/01/22 00:40:59;;;;;;;0.20;0.20;;;;;;;23.93;10.87;100320.88;5035068;28;20487;-76
2022/01/22 00:43:25;;;;;;;0.57;0.30;;;;;;;23.90;10.90;100322.22;5034824;28;20021;-76
2022/01/22 00:45:51;;;;;;;0.30;0.30;;;;;;;23.92;10.69;100322.78;5035166;28;20086;-76
2022/01/22 00:48:16;;;;;;;0.30;0.30;;;;;;;23.93;10.81;100329.88;5034629;28;20469;-76
2022/01/22 00:50:43;;;;;;;0.30;0.30;;;;;;;23.95;10.74;100329.59;5035951;28;20017;-76
2022/01/22 00:53:08;;;;;;;0.30;0.30;;;;;;;23.92;10.87;100344.63;5035001;28;20025;-76
2022/01/22 00:55:34;;;;;;;0.30;0.30;;;;;;;23.93;10.91;100354.44;5035000;28;20499;-76
2022/01/22 00:57:59;;;;;;;0.22;0.22;;;;;;;23.94;10.82;100352.50;5034926;28;20376;-76
2022/01/22 01:00:25;;;;;;;0.30;0.30;;;;;;;23.93;10.59;100356.34;5017210;28;20037;-76
2022/01/22 01:02:50;;;;;;;0.22;0.22;;;;;;;23.93;10.86;100359.09;5034757;28;20456;-76
2022/01/22 01:05:15;;;;;;;0.30;0.30;;;;;;;23.91;10.90;100358.56;5034446;28;20549;-76
2022/01/22 01:07:41;;;;;;;0.20;0.20;;;;;;;23.94;10.88;100371.63;5034868;28;20025;-76
2022/01/22 01:10:08;;;;;;;0.30;0.30;;;;;;;23.90;10.95;100373.28;5034568;28;20483;-76
2022/01/22 01:12:35;;;;;;;0.57;0.30;;;;;;;23.90;10.56;100378.72;5035312;28;20057;-76
2022/01/22 01:17:58;;;;;;;0.30;0.30;;;;;;;23.92;11.00;100390.19;5034483;28;20094;-76
2022/01/22 01:36:36;;;;;;;0.28;0.28;;;;;;;23.91;10.73;100399.47;5014281;28;20392;-76
2022/01/22 01:39:04;;;;;;;0.30;0.30;;;;;;;23.90;10.81;100400.56;5014466;28;20022;-77
2022/01/22 01:41:46;;;;;;;0.22;0.22;;;;;;;23.89;10.80;100397.03;5014178;28;20041;-76
2022/01/22 01:44:12;;;;;;;0.30;0.30;;;;;;;23.89;11.01;100402.50;5013472;28;20030;-76
2022/01/22 01:46:45;;;;;;;0.30;0.30;;;;;;;23.90;10.86;100400.56;5014195;28;20487;-76
2022/01/22 01:49:11;;;;;;;0.30;0.30;;;;;;;23.90;10.92;100411.47;4996897;28;20022;-77
2022/01/22 01:51:36;;;;;;;0.30;0.30;;;;;;;23.91;10.75;100413.13;5014307;28;20042;-75
2022/01/22 01:54:11;;;;;;;0.20;0.20;;;;;;;23.88;10.76;100424.59;5014977;28;20372;-76
2022/01/22 01:59:21;;;;;;;0.30;0.30;;;;;;;23.90;10.76;100430.59;5013990;28;20137;-76
2022/01/22 02:01:46;;;;;;;0.40;0.40;;;;;;;23.90;10.74;100445.03;4981070;28;20034;-76
2022/01/22 02:04:13;;;;;;;0.40;0.40;;;;;;;23.84;10.61;100437.16;5013895;28;20357;-76
2022/01/22 02:06:39;;;;;;;0.32;0.32;;;;;;;23.88;10.68;100435.50;5014209;28;20372;-77
2022/01/22 02:09:07;;;;;;;0.30;0.30;;;;;;;23.87;10.73;100437.44;5013958;28;20030;-76
2022/01/22 02:11:34;;;;;;;0.30;0.30;;;;;;;23.87;10.53;100429.25;5014059;28;20035;-76
2022/01/22 02:24:55;;;;;;;0.30;0.30;;;;;;;23.90;10.50;100449.69;5013636;28;20044;-76
2022/01/22 02:27:20;;;;;;;0.30;0.30;;;;;;;23.86;10.66;100452.16;5024586;28;20029;-75
2022/01/22 02:29:46;;;;;;;0.30;0.30;;;;;;;23.86;10.60;100448.63;5033441;28;20200;-75
2022/01/22 02:38:08;;;;;;;0.30;0.30;;;;;;;23.85;10.74;100457.88;4952966;29;20039;-75
2022/01/22 02:40:41;;;;;;;0.30;0.30;;;;;;;23.90;10.64;100463.34;4953051;29;20114;-75
2022/01/22 02:43:09;;;;;;;0.38;0.30;;;;;;;23.88;10.63;100463.59;4953113;29;20166;-76
2022/01/22 02:45:34;;;;;;;0.30;0.30;;;;;;;23.88;10.68;100473.72;4952950;29;20039;-76
2022/01/22 02:48:00;;;;;;;0.30;0.30;;;;;;;23.87;10.53;100474.78;4941090;29;20131;-76
2022/01/22 02:50:25;;;;;;;0.40;0.40;;;;;;;23.86;10.48;100475.91;4933948;29;20467;-75
2022/01/22 02:52:51;;;;;;;0.30;0.30;;;;;;;23.83;10.82;100477.25;4934273;29;20040;-76
2022/01/22 02:55:16;;;;;;;0.30;0.30;;;;;;;23.85;10.55;100491.44;4936236;29;20043;-76
2022/01/22 02:57:43;;;;;;;0.20;0.20;;;;;;;23.86;10.49;100490.38;4937872;29;20048;-76
2022/01/22 03:00:11;;;;;;;0.20;0.20;;;;;;;23.86;10.48;100503.19;4938062;29;20048;-76
2022/01/22 03:02:39;;;;;;;0.30;0.30;;;;;;;23.85;10.64;100517.94;4938547;29;20474;-76
2022/01/22 03:05:06;;;;;;;0.25;0.25;;;;;;;23.81;10.42;100518.47;4937991;29;20047;-75
2022/01/22 03:07:31;;;;;;;0.30;0.30;;;;;;;23.85;10.43;100517.94;4938158;29;20061;-76
2022/01/22 03:10:01;;;;;;;0.30;0.30;;;;;;;23.86;10.46;100516.84;4937825;29;20076;-77
2022/01/22 03:18:02;;;;;;;0.30;0.30;;;;;;;23.81;10.56;100512.19;4937515;29;20142;-76
2022/01/22 03:20:46;;;;;;;0.30;0.30;;;;;;;23.80;10.71;100505.91;4937936;29;20047;-76
2022/01/22 03:27:20;;;;;;;0.30;0.30;;;;;;;23.85;10.67;100529.66;4937237;29;20040;-76
2022/01/22 03:28:53;;;;;;;0.30;0.30;;;;;;;23.87;10.66;100529.38;4937709;29;20096;-76
2022/01/22 03:31:19;;;;;;;0.30;0.30;;;;;;;23.84;10.49;100529.94;4937139;29;20040;-76
2022/01/22 03:33:45;;;;;;;0.25;0.25;;;;;;;23.85;10.60;100528.84;4937807;29;20043;-76
2022/01/22 03:36:11;;;;;;;0.30;0.30;;;;;;;23.83;10.34;100520.91;4937170;29;20502;-77
2022/01/22 03:38:37;;;;;;;0.32;0.32;;;;;;;23.80;10.57;100533.19;4936792;29;20034;-76
2022/01/22 03:41:02;;;;;;;0.30;0.30;;;;;;;23.83;10.78;100526.38;4936912;29;20036;-76
2022/01/22 03:43:28;;;;;;;0.43;0.43;;;;;;;23.81;10.55;100534.84;4936631;29;20043;-76
2022/01/22 03:45:53;;;;;;;0.35;0.30;;;;;;;23.81;10.48;100540.28;4936663;29;20048;-77
2022/01/22 03:48:18;;;;;;;0.40;0.40;;;;;;;23.82;10.48;100541.13;4950508;29;20073;-76
2022/01/22 03:50:44;;;;;;;0.20;0.20;;;;;;;23.82;10.52;100535.69;4955938;29;20035;-76
2022/01/22 03:53:09;;;;;;;0.47;0.32;;;;;;;23.83;10.63;100544.66;4955841;29;20090;-76
2022/01/22 03:55:55;;;;;;;0.30;0.30;;;;;;;23.78;10.69;100545.44;5007526;28;20056;-76
2022/01/22 03:58:20;;;;;;;0.30;0.30;;;;;;;23.83;10.58;100553.66;5016159;28;20041;-76
2022/01/22 04:00:47;;;;;;;0.30;0.30;;;;;;;23.78;10.58;100545.44;5015946;28;20384;-76
2022/01/22 04:05:49;;;;;;;0.30;0.30;;;;;;;23.78;10.56;100559.09;5015582;28;20030;-76
2022/01/22 04:08:17;;;;;;;0.40;0.40;;;;;;;23.80;10.39;100560.47;5015874;28;20040;-75
2022/01/22 04:10:43;;;;;;;0.28;0.28;;;;;;;23.81;10.60;100558.59;5016231;28;20029;-75
2022/01/22 04:13:12;;;;;;;0.30;0.30;;;;;;;23.78;10.70;100557.22;5015959;28;20022;-76
2022/01/22 04:15:40;;;;;;;0.30;0.30;;;;;;;23.80;10.45;100565.09;4999138;28;20112;-76
2022/01/22 04:26:30;;;;;;;0.30;0.30;;;;;;;23.79;10.62;100569.75;5016174;28;20052;-76
2022/01/22 04:28:56;;;;;;;0.30;0.30;;;;;;;23.80;10.52;100567.81;5035694;28;20033;-77
2022/01/22 04:31:22;;;;;;;0.35;0.32;;;;;;;23.77;10.26;100569.19;5035520;28;20017;-76
2022/01/22 04:33:47;;;;;;;0.22;0.22;;;;;;;23.78;10.45;100573.56;5035490;28;20506;-77
2022/01/22 04:36:13;;;;;;;0.50;0.38;;;;;;;23.78;10.55;100579.03;5035443;28;20376;-76
2022/01/22 04:38:38;;;;;;;0.60;0.38;;;;;;;23.79;10.25;100577.94;5035468;28;20035;-76
2022/01/22 04:41:05;;;;;;;0.30;0.30;;;;;;;23.78;10.56;100586.38;5035529;28;20032;-76
2022/01/22 04:43:32;;;;;;;0.40;0.32;;;;;;;23.78;10.69;100584.50;5035290;28;20379;-76
2022/01/22 04:56:32;;;;;;;0.30;0.30;;;;;;;23.79;10.49;100610.66;5035453;28;20039;-76
2022/01/22 04:58:59;;;;;;;0.30;0.30;;;;;;;23.78;10.33;100617.25;5035427;28;20375;-76
2022/01/22 05:01:24;;;;;;;0.50;0.38;;;;;;;23.76;10.63;100630.31;5035234;28;20029;-76
2022/01/22 05:03:50;;;;;;;0.30;0.30;;;;;;;23.77;10.26;100625.69;5035362;28;20056;-76
2022/01/22 05:06:15;;;;;;;0.40;0.40;;;;;;;23.74;10.59;100637.94;5018592;28;20499;-76
2022/01/22 05:08:40;;;;;;;0.50;0.50;;;;;;;23.77;10.56;100648.34;5037403;28;20071;-76
2022/01/22 05:11:08;;;;;;;0.30;0.30;;;;;;;23.76;10.49;100635.75;5038548;28;20025;-76
2022/01/22 05:13:33;;;;;;;0.40;0.40;;;;;;;23.77;10.56;100644.78;5038465;28;20038;-76
2022/01/22 05:15:59;;;;;;;0.40;0.40;;;;;;;23.78;10.25;100643.69;5039656;28;20029;-77
2022/01/22 05:18:49;;;;;;;0.22;0.22;;;;;;;23.80;10.65;100647.81;5039406;28;20064;-76
2022/01/22 05:21:16;;;;;;;0.30;0.30;;;;;;;23.78;10.38;100638.22;5043076;28;20030;-77
2022/01/22 05:23:43;;;;;;;0.20;0.20;;;;;;;23.71;10.58;100627.56;5039295;28;20107;-77
2022/01/22 05:26:25;;;;;;;0.30;0.30;;;;;;;23.77;10.52;100626.50;5049021;28;20030;-77
2022/01/22 05:37:00;;;;;;;0.32;0.30;;;;;;;23.78;10.24;100635.50;4990110;28;20066;-76
2022/01/22 05:39:28;;;;;;;0.30;0.30;;;;;;;23.77;10.37;100639.34;4984781;28;20093;-77
2022/01/22 05:41:54;;;;;;;0.30;0.30;;;;;;;23.75;10.44;100641.50;4990817;28;20066;-76
2022/01/22 05:44:20;;;;;;;0.45;0.40;;;;;;;23.75;10.23;100650.50;4990196;28;20035;-77
2022/01/22 05:46:48;;;;;;;0.30;0.30;;;;;;;23.71;10.51;100643.94;4995057;28;20031;-75
2022/01/22 05:49:13;;;;;;;0.30;0.30;;;;;;;23.75;10.43;100650.50;4977613;28;20030;-76
2022/01/22 05:51:41;;;;;;;0.22;0.22;;;;;;;23.76;10.46;100645.88;4991520;28;20065;-77
2022/01/22 05:59:38;;;;;;;0.30;0.30;;;;;;;23.75;10.23;100653.25;4992987;28;20049;-77
2022/01/22 06:02:05;;;;;;;0.22;0.22;;;;;;;23.75;10.49;100649.69;4993707;28;20034;-76
2022/01/22 06:04:30;;;;;;;0.30;0.30;;;;;;;23.75;10.41;100655.97;4991343;28;20027;-76
2022/01/22 06:06:55;;;;;;;0.38;0.30;;;;;;;23.72;10.48;100650.25;4992950;28;20041;-76
2022/01/22 06:09:21;;;;;;;0.20;0.20;;;;;;;23.76;10.23;100651.31;4975677;28;20034;-76
2022/01/22 06:12:14;;;;;;;0.43;0.40;;;;;;;23.74;10.41;100648.88;4972930;28;20470;-76
2022/01/22 06:14:40;;;;;;;0.60;0.40;;;;;;;23.74;10.16;100651.59;5005887;28;20041;-76
2022/01/22 06:17:05;;;;;;;0.30;0.30;;;;;;;23.74;10.51;100661.69;5013892;28;20076;-77
2022/01/22 06:19:30;;;;;;;0.30;0.30;;;;;;;23.76;10.23;100662.25;5014244;28;20029;-76
2022/01/22 06:21:56;;;;;;;0.20;0.20;;;;;;;23.74;10.33;100665.22;5014157;28;20029;-77
2022/01/22 06:24:22;;;;;;;0.30;0.30;;;;;;;23.73;10.30;100677.25;5014229;28;20480;-77
2022/01/22 06:26:47;;;;;;;0.30;0.30;;;;;;;23.73;10.33;100680.00;5012979;28;20302;-77
2022/01/22 06:29:13;;;;;;;0.20;0.20;;;;;;;23.73;10.17;100682.72;5013262;28;20169;-77
2022/01/22 06:31:38;;;;;;;0.30;0.30;;;;;;;23.73;10.06;100681.88;5013534;28;20029;-77
2022/01/22 06:34:04;;;;;;;0.40;0.40;;;;;;;23.70;10.30;100691.44;5014228;28;20025;-76
2022/01/22 06:36:29;;;;;;;0.30;0.30;;;;;;;23.72;10.11;100702.91;5013947;28;20030;-76
2022/01/22 06:39:08;;;;;;;0.30;0.30;;;;;;;23.72;9.98;100697.44;5013627;28;20353;-74
2022/01/22 06:41:46;;;;;;;0.68;0.30;;;;;;;23.73;10.30;100696.34;5012791;28;20053;-76
2022/01/22 06:44:15;;;;;;;0.30;0.30;;;;;;;23.71;10.16;100701.25;5013702;28;20038;-77
2022/01/22 06:46:41;;;;;;;0.30;0.30;;;;;;;23.71;10.26;100708.63;5013547;28;20022;-76
2022/01/22 06:49:07;;;;;;;0.35;0.35;;;;;;;23.71;10.06;100709.44;5013997;28;20049;-77
2022/01/22 06:51:33;;;;;;;0.43;0.43;;;;;;;23.71;10.03;100714.88;5013650;28;20022;-76
2022/01/22 06:54:00;;;;;;;0.40;0.40;;;;;;;23.68;10.04;100720.91;4996052;28;20113;-77
2022/01/22 06:56:28;;;;;;;0.30;0.30;;;;;;;23.72;9.92;100734.81;5013728;28;20041;-77
2022/01/22 06:58:53;;;;;;;0.30;0.30;;;;;;;23.72;10.13;100738.38;5012432;28;20041;-77
2022/01/22 07:01:19;;;;;;;0.40;0.40;;;;;;;23.70;10.05;100734.25;5013315;28;20029;-75
2022/01/22 07:03:44;;;;;;;0.30;0.30;;;;;;;23.71;10.23;100733.97;5013699;28;20037;-76
2022/01/22 07:06:10;;;;;;;0.35;0.35;;;;;;;23.70;9.86;100737.81;5013654;28;20322;-77
2022/01/22 07:08:35;;;;;;;0.30;0.30;;;;;;;23.72;9.93;100732.09;5013102;28;20452;-76
2022/01/22 07:11:00;;;;;;;0.40;0.40;;;;;;;23.69;9.96;100741.63;5013488;28;20022;-76
2022/01/22 07:13:26;;;;;;;0.30;0.30;;;;;;;23.69;9.87;100747.06;5013501;28;20041;-75
2022/01/22 07:15:51;;;;;;;0.40;0.40;;;;;;;23.69;10.03;100749.81;5014095;28;20368;-76
2022/01/22 07:18:17;;;;;;;0.40;0.40;;;;;;;23.69;9.85;100752.53;5013275;28;20469;-76
2022/01/22 07:20:43;;;;;;;0.40;0.40;;;;;;;23.71;9.94;100752.28;5013340;28;20420;-76
2022/01/22 07:23:31;;;;;;;0.30;0.30;;;;;;;23.71;9.65;100760.47;5013294;28;20105;-76
2022/01/22 07:25:57;;;;;;;0.25;0.25;;;;;;;23.70;9.98;100764.25;5013185;28;20038;-74
2022/01/22 07:28:22;;;;;;;0.40;0.40;;;;;;;23.69;10.10;100759.91;5027994;28;20427;-76
2022/01/22 07:30:48;;;;;;;0.30;0.30;;;;;;;23.71;9.98;100755.81;5033037;28;20025;-76
2022/01/22 07:33:14;;;;;;;0.32;0.32;;;;;;;23.71;9.98;100763.19;5033456;28;20026;-76
2022/01/22 07:35:39;;;;;;;0.20;0.20;;;;;;;23.72;9.73;100762.13;5033012;28;20491;-76
2022/01/22 07:38:05;;;;;;;0.32;0.32;;;;;;;23.68;10.05;100753.63;5032981;28;20479;-76
2022/01/22 07:40:30;;;;;;;0.40;0.40;;;;;;;23.69;9.99;100755.25;5032737;28;20025;-77
2022/01/22 07:42:56;;;;;;;0.32;0.30;;;;;;;23.70;9.73;100750.63;5036213;28;20105;-76
2022/01/22 07:45:21;;;;;;;0.30;0.30;;;;;;;23.68;10.18;100748.19;5037017;28;20422;-76
2022/01/22 07:47:47;;;;;;;0.38;0.38;;;;;;;23.69;9.84;100747.06;5037081;28;20041;-77
2022/01/22 07:50:12;;;;;;;0.40;0.40;;;;;;;23.68;10.26;100747.34;5037259;28;20120;-77
2022/01/22 07:52:37;;;;;;;0.30;0.30;;;;;;;23.69;10.00;100740.81;5036873;28;20025;-76
2022/01/22 07:55:03;;;;;;;0.30;0.30;;;;;;;23.66;9.88;100747.59;5035931;28;20041;-76
2022/01/22 07:57:29;;;;;;;0.45;0.45;;;;;;;23.69;9.67;100749.81;5036634;28;20369;-76
2022/01/22 07:59:54;;;;;;;0.45;0.40;;;;;;;23.66;9.87;100750.34;5035832;28;20040;-76
2022/01/22 08:02:20;;;;;;;0.40;0.40;;;;;;;23.68;9.68;100756.38;5036192;28;20033;-76
2022/01/22 08:04:45;;;;;;;0.40;0.40;;;;;;;23.70;9.65;100754.19;5035934;28;20029;-76
2022/01/22 08:07:11;;;;;;;0.45;0.40;;;;;;;23.68;9.92;100755.53;5036437;28;20052;-76
2022/01/22 08:09:36;;;;;;;0.32;0.32;;;;;;;23.70;9.74;100756.91;5036027;28;20090;-76
2022/01/22 08:12:02;;;;;;;0.20;0.20;;;;;;;23.70;9.80;100750.63;5035676;28;20072;-76
2022/01/22 08:14:27;;;;;;;0.30;0.30;;;;;;;23.68;9.93;100742.72;5035977;28;20033;-76
2022/01/22 08:16:52;;;;;;;0.30;0.30;;;;;;;23.68;9.74;100748.19;5035716;28;20036;-76
2022/01/22 08:19:18;;;;;;;0.47;0.45;;;;;;;23.64;9.62;100738.88;5035908;28;20025;-76
2022/01/22 08:21:45;;;;;;;0.38;0.38;;;;;;;23.64;9.90;100747.06;5035828;28;20032;-76
2022/01/22 08:24:11;;;;;;;0.40;0.40;;;;;;;23.66;9.65;100747.59;5035339;28;20029;-76
2022/01/22 08:26:42;;;;;;;0.40;0.40;;;;;;;23.67;9.77;100753.91;5035578;28;20053;-77
2022/01/22 08:29:07;;;;;;;0.40;0.40;;;;;;;23.63;9.75;100751.69;5015955;28;20029;-75
2022/01/22 08:36:43;;;;;;;0.40;0.40;;;;;;;23.66;9.65;100765.88;5015746;28;20053;-75
2022/01/22 08:39:09;;;;;;;0.40;0.40;;;;;;;23.66;9.90;100774.88;5015096;28;20472;-76
2022/01/22 08:41:34;;;;;;;0.35;0.35;;;;;;;23.67;9.84;100770.28;5015594;28;20509;-77
2022/01/22 08:44:00;;;;;;;0.50;0.50;;;;;;;23.65;9.59;100773.25;5015821;28;20022;-75
2022/01/22 08:46:26;;;;;;;0.40;0.40;;;;;;;23.63;9.62;100775.44;5015385;28;20443;-76
2022/01/22 08:48:52;;;;;;;0.40;0.40;;;;;;;23.66;9.64;100774.88;5015185;28;20049;-78
2022/01/22 08:51:17;;;;;;;0.40;0.40;;;;;;;23.66;9.91;100771.34;5015549;28;20040;-78
2022/01/22 08:53:42;;;;;;;0.40;0.40;;;;;;;23.67;9.81;100775.72;5013781;28;20034;-79
2022/01/22 08:56:09;;;;;;;0.38;0.38;;;;;;;23.65;10.00;100767.81;5015793;28;20120;-79
2022/01/22 08:58:35;;;;;;;0.32;0.32;;;;;;;23.68;9.59;100774.63;5015156;28;20025;-78
2022/01/22 09:01:00;;;;;;;0.40;0.40;;;;;;;23.65;9.80;100777.91;5016179;28;20025;-77
2022/01/22 09:03:26;;;;;;;0.40;0.40;;;;;;;23.69;9.64;100771.63;5016905;28;20033;-79
2022/01/22 09:05:52;;;;;;;0.45;0.45;;;;;;;23.66;9.81;100769.44;5016353;28;20449;-79
2022/01/22 09:08:17;;;;;;;0.40;0.40;;;;;;;23.66;9.81;100772.16;5015863;28;20028;-79
2022/01/22 09:10:43;;;;;;;0.40;0.40;;;;;;;23.66;9.75;100768.63;5015427;28;20022;-78
2022/01/22 09:13:10;;;;;;;0.52;0.52;;;;;;;23.67;9.52;100773.81;5015221;28;20029;-79
2022/01/22 09:15:38;;;;;;;0.30;0.30;;;;;;;23.62;9.48;100765.59;5015527;28;20108;-79
2022/01/22 09:18:04;;;;;;;0.40;0.40;;;;;;;23.66;9.44;100768.63;5015659;28;20155;-79
2022/01/22 09:23:05;;;;;;;0.40;0.40;;;;;;;23.65;9.59;100775.19;5015235;28;20334;-79
2022/01/22 09:25:30;;;;;;;0.40;0.40;;;;;;;23.65;9.64;100778.72;5015368;28;20033;-77
2022/01/22 09:27:56;;;;;;;0.40;0.40;;;;;;;23.65;9.60;100781.44;5024531;28;20060;-75
2022/01/22 09:30:21;;;;;;;0.40;0.40;;;;;;;23.67;9.42;100784.72;5034555;28;20033;-77
2022/01/22 09:32:47;;;;;;;0.32;0.32;;;;;;;23.64;9.77;100787.97;5034436;28;20021;-76
2022/01/22 09:35:12;;;;;;;0.35;0.35;;;;;;;23.67;9.79;100784.72;5034359;28;20022;-76
2022/01/22 09:37:38;;;;;;;0.60;0.38;;;;;;;23.65;9.70;100792.38;5034490;28;20456;-76
2022/01/22 09:40:07;;;;;;;0.50;0.50;;;;;;;23.64;9.75;100790.72;5034891;28;20444;-76
2022/01/22 09:42:32;;;;;;;0.30;0.30;;;;;;;23.62;9.67;100790.16;5016855;28;20029;-76
2022/01/22 09:44:58;;;;;;;0.80;0.50;;;;;;;23.66;9.57;100793.19;5034027;28;20026;-75
2022/01/22 09:47:23;;;;;;;0.50;0.50;;;;;;;23.60;9.47;100795.06;5033936;28;20052;-76
2022/01/22 09:49:49;;;;;;;0.30;0.30;;;;;;;23.58;9.33;100797.25;5016202;28;20021;-75
2022/01/22 09:52:14;;;;;;;0.50;0.50;;;;;;;23.66;9.59;100809.53;5034440;28;20043;-75
2022/01/22 09:54:40;;;;;;;0.43;0.43;;;;;;;23.65;9.77;100808.72;5034173;28;20033;-77
2022/01/22 09:57:06;;;;;;;0.50;0.50;;;;;;;23.67;9.38;100811.19;5034143;28;20029;-76
2022/01/22 09:59:31;;;;;;;0.45;0.45;;;;;;;23.62;9.51;100815.53;5034154;28;20475;-76
2022/01/22 10:02:10;;;;;;;0.40;0.40;;;;;;;23.68;9.50;100813.66;5033629;28;20026;-76
2022/01/22 10:04:37;;;;;;;0.40;0.40;;;;;;;23.62;9.45;100807.34;5032777;28;20033;-75
2022/01/22 10:07:02;;;;;;;0.40;0.40;;;;;;;23.61;9.39;100810.34;5033334;28;20510;-75
2022/01/22 10:09:34;;;;;;;0.50;0.50;;;;;;;23.63;9.45;100822.63;5033659;28;20026;-76
2022/01/22 10:12:14;;;;;;;0.40;0.40;;;;;;;23.68;9.37;100824.59;5033735;28;20041;-75
2022/01/22 10:15:11;;;;;;;0.50;0.50;;;;;;;23.70;9.54;100825.13;5033405;28;20134;-79
2022/01/22 10:17:54;;;;;;;0.47;0.47;;;;;;;23.72;9.43;100836.59;5033916;28;20037;-78
2022/01/22 10:20:22;;;;;;;0.40;0.40;;;;;;;23.64;9.65;100839.81;5033403;28;20526;-78
2022/01/22 10:22:51;;;;;;;0.40;0.40;;;;;;;23.62;9.54;100850.19;5033775;28;20034;-79
2022/01/22 10:25:21;;;;;;;0.50;0.50;;;;;;;23.62;9.55;100852.91;5034011;28;20033;-79
2022/01/22 10:27:55;;;;;;;0.40;0.40;;;;;;;23.66;9.66;100848.56;5033692;28;20022;-79
2022/01/22 10:30:20;;;;;;;0.40;0.40;;;;;;;23.62;9.69;100850.19;5033939;28;20028;-79
2022/01/22 10:35:37;;;;;;;0.40;0.40;;;;;;;23.65;9.39;100848.84;4934877;29;20040;-79
2022/01/22 10:38:03;;;;;;;0.30;0.30;;;;;;;23.65;9.39;100852.38;4934596;29;20501;-79
2022/01/22 10:40:30;;;;;;;0.30;0.30;;;;;;;23.61;9.20;100846.63;4934689;29;20059;-79
2022/01/22 10:43:11;;;;;;;0.50;0.50;;;;;;;23.67;9.58;100850.22;4934106;29;20081;-78
2022/01/22 10:45:40;;;;;;;0.50;0.50;;;;;;;23.65;9.40;100840.66;4933856;29;20028;-78
2022/01/22 10:48:14;;;;;;;0.40;0.40;;;;;;;23.65;9.39;100846.94;4933794;29;20134;-78
2022/01/22 10:50:39;;;;;;;;;;;;;;;23.90;9.16;100848.19;4934550;29;20429;-76
2022/01/22 10:53:05;;;;;;;0.50;0.50;;;;;;;23.68;9.41;100848.28;4934420;29;20005;-79
2022/01/22 10:55:30;;;;;;;0.40;0.40;;;;;;;23.61;9.36;100859.44;4918329;29;20471;-79
2022/01/22 10:58:08;;;;;;;0.50;0.50;;;;;;;23.71;9.31;100873.16;4934273;29;20043;-78
2022/01/22 11:00:34;;;;;;;0.50;0.50;;;;;;;23.63;9.53;100869.03;4934338;29;20039;-78
2022/01/22 11:03:18;;;;;;;0.50;0.50;;;;;;;23.67;9.70;100866.59;4933673;29;20115;-77
2022/01/22 11:05:43;;;;;;;0.40;0.40;;;;;;;23.65;9.31;100860.56;4933741;29;20044;-76
2022/01/22 11:08:10;;;;;;;0.30;0.30;;;;;;;23.61;9.60;100862.16;4934014;29;20035;-75
2022/01/22 11:10:35;;;;;;;0.60;0.50;;;;;;;23.59;9.35;100864.34;4933768;29;20036;-76
2022/01/22 11:13:00;;;;;;;0.40;0.40;;;;;;;23.64;9.47;100867.09;4996092;28;20096;-77
2022/01/22 11:15:27;;;;;;;0.52;0.52;;;;;;;23.61;9.55;100867.63;5033945;28;20075;-76
2022/01/22 11:17:52;;;;;;;0.50;0.40;;;;;;;23.64;9.21;100872.56;5035788;28;20026;-76
2022/01/22 11:20:18;;;;;;;0.32;0.32;;;;;;;23.62;9.68;100877.47;5018879;28;20173;-76
2022/01/22 11:22:43;;;;;;;0.43;0.43;;;;;;;23.62;9.53;100881.00;5035492;28;20032;-76
2022/01/22 11:25:10;;;;;;;0.40;0.40;;;;;;;23.64;9.33;100880.75;5036828;28;20025;-74
2022/01/22 11:27:36;;;;;;;0.40;0.40;;;;;;;23.61;9.27;100884.00;5036418;28;20055;-77
2022/01/22 11:30:05;;;;;;;0.40;0.40;;;;;;;23.58;9.55;100874.44;5019033;28;20026;-76
2022/01/22 11:32:39;;;;;;;0.38;0.38;;;;;;;23.60;9.56;100887.81;5036738;28;20061;-76
2022/01/22 11:35:05;;;;;;;0.40;0.40;;;;;;;23.65;9.61;100879.66;5036362;28;20073;-76
2022/01/22 11:37:53;;;;;;;0.47;0.45;;;;;;;23.57;9.30;100874.69;5018602;28;20021;-76
2022/01/22 11:40:20;;;;;;;0.40;0.40;;;;;;;23.64;9.31;100888.94;5021507;28;20025;-76
2022/01/22 11:43:00;;;;;;;0.47;0.47;;;;;;;23.65;9.29;100887.84;5036442;28;20029;-76
2022/01/22 11:45:30;;;;;;;0.40;0.40;;;;;;;23.63;9.46;100882.66;5036501;28;20033;-76
2022/01/22 11:48:34;;;;;;;0.30;0.30;;;;;;;23.68;9.40;100884.63;5036028;28;20112;-76
2022/01/22 11:51:32;;;;;;;0.40;0.40;;;;;;;23.72;9.31;100888.44;4994818;28;20038;-76
2022/01/22 11:53:58;;;;;;;0.50;0.50;;;;;;;23.65;9.42;100887.03;4901904;29;20052;-78
2022/01/22 11:56:28;;;;;;;0.43;0.43;;;;;;;23.62;9.21;100891.91;4936567;29;20030;-79
2022/01/22 11:58:56;;;;;;;0.40;0.40;;;;;;;23.64;9.50;100894.38;4937198;29;20028;-79
2022/01/22 12:01:39;;;;;;;0.30;0.30;;;;;;;23.67;9.32;100898.50;4936768;29;20127;-79
2022/01/22 12:04:09;;;;;;;0.40;0.40;;;;;;;23.59;9.39;100897.94;4937130;29;20036;-79
2022/01/22 12:06:36;;;;;;;0.40;0.35;;;;;;;23.60;9.16;100899.53;4936905;29;20048;-79
2022/01/22 12:09:15;;;;;;;0.40;0.40;;;;;;;23.63;9.38;100903.69;4920601;29;20034;-78
2022/01/22 12:14:49;;;;;;;0.43;0.43;;;;;;;23.69;9.42;100913.53;4938343;29;20375;-79
2022/01/22 12:17:24;;;;;;;0.50;0.45;;;;;;;23.60;9.34;100909.66;4936851;29;20044;-78
2022/01/22 12:22:40;;;;;;;0.40;0.40;;;;;;;23.66;9.50;100924.97;4937815;29;20036;-79
2022/01/22 12:25:08;;;;;;;0.40;0.32;;;;;;;23.59;9.41;100917.03;4937918;29;20557;-77
2022/01/22 12:27:43;;;;;;;0.32;0.32;;;;;;;23.61;9.42;100923.03;4935923;29;20427;-79
2022/01/22 12:30:09;;;;;;;0.52;0.52;;;;;;;23.60;9.41;100928.75;4963082;28;20041;-79
2022/01/22 12:32:48;;;;;;;0.32;0.32;;;;;;;23.65;9.22;100936.97;5017641;28;20018;-79
2022/01/22 12:35:38;;;;;;;0.50;0.50;;;;;;;23.66;9.48;100941.31;5019250;28;20033;-79
2022/01/22 12:38:47;;;;;;;0.50;0.50;;;;;;;23.64;9.32;100932.59;5018813;28;20053;-79
2022/01/22 12:41:32;;;;;;;0.40;0.40;;;;;;;23.57;9.27;100934.72;5015963;28;20041;-78
2022/01/22 12:44:05;;;;;;;0.45;0.45;;;;;;;23.62;9.33;100941.03;5015792;28;20030;-79
2022/01/22 12:46:30;;;;;;;0.50;0.50;;;;;;;23.61;9.35;100949.47;5015308;28;20026;-78
2022/01/22 12:48:56;;;;;;;0.45;0.45;;;;;;;23.60;9.09;100956.03;5015268;28;20084;-77
2022/01/22 12:51:26;;;;;;;0.47;0.40;;;;;;;23.58;9.10;100961.75;5015385;28;20028;-76
2022/01/22 12:53:51;;;;;;;0.43;0.40;;;;;;;23.61;9.06;100976.75;4998127;28;20030;-75
2022/01/22 12:56:48;;;;;;;0.40;0.40;;;;;;;23.62;9.14;100973.78;5015478;28;20022;-76
2022/01/22 12:59:18;;;;;;;0.30;0.30;;;;;;;23.60;9.20;100972.41;4974595;28;20043;-76
2022/01/22 13:01:45;;;;;;;0.40;0.40;;;;;;;23.58;8.96;100977.31;4973751;28;20046;-76
2022/01/22 13:04:10;;;;;;;0.50;0.50;;;;;;;23.60;9.16;100975.13;4973915;28;20038;-76
2022/01/22 13:06:45;;;;;;;0.47;0.47;;;;;;;23.58;9.26;100974.56;4973851;28;20086;-76
2022/01/22 13:09:11;;;;;;;0.50;0.40;;;;;;;23.58;9.13;100972.66;4958013;28;20034;-76
2022/01/22 13:11:45;;;;;;;0.40;0.40;;;;;;;23.56;9.20;100968.53;4973603;28;20035;-76
2022/01/22 13:14:11;;;;;;;0.40;0.40;;;;;;;23.61;9.10;100974.03;4973805;28;20138;-77
2022/01/22 13:16:44;;;;;;;0.40;0.40;;;;;;;23.60;9.22;100969.66;4973561;28;20039;-75